createdAt,value
2023-02-04T00:01:25.512Z,4.10
2023-02-04T00:03:53.880Z,4.60
2023-02-04T00:06:22.272Z,4.90
2023-02-04T00:08:50.596Z,5.40
2023-02-04T00:11:19.214Z,5.40
2023-02-04T00:13:47.838Z,5.70
2023-02-04T00:16:16.234Z,5.40
2023-02-04T00:18:44.630Z,6.60
2023-02-04T00:21:13.135Z,5.60
2023-02-04T00:23:42.440Z,5.60
2023-02-04T00:26:11.573Z,5.80
2023-02-04T00:28:43.985Z,5.90
2023-02-04T00:31:12.843Z,6.00
2023-02-04T00:33:43.111Z,5.30
2023-02-04T00:36:11.297Z,5.00
2023-02-04T00:38:39.897Z,5.30
2023-02-04T00:41:08.118Z,6.00
2023-02-04T00:43:36.395Z,5.60
2023-02-04T00:46:05.087Z,5.20
2023-02-04T00:48:34.516Z,5.40
2023-02-04T00:51:03.095Z,6.00
2023-02-04T00:53:31.470Z,5.60
2023-02-04T00:56:00.273Z,5.70
2023-02-04T00:58:30.696Z,5.30
2023-02-04T01:00:59.358Z,6.30
2023-02-04T01:03:27.441Z,6.80
2023-02-04T01:05:55.700Z,7.20
2023-02-04T01:08:24.188Z,7.50
2023-02-04T01:10:58.644Z,6.60
2023-02-04T01:13:27.100Z,7.00
2023-02-04T01:15:55.744Z,7.00
2023-02-04T01:18:25.691Z,8.50
2023-02-04T01:20:54.226Z,7.60
2023-02-04T01:23:22.505Z,7.20
2023-02-04T01:25:50.675Z,7.40
2023-02-04T01:28:19.186Z,7.90
2023-02-04T01:30:50.491Z,8.40
2023-02-04T01:33:19.412Z,7.90
2023-02-04T01:35:47.742Z,7.30
2023-02-04T01:38:16.033Z,7.80
2023-02-04T01:40:45.154Z,7.80
2023-02-04T01:43:14.060Z,8.90
2023-02-04T01:45:42.691Z,8.80
2023-02-04T01:48:12.953Z,7.70
2023-02-04T01:50:41.408Z,7.90
2023-02-04T01:53:10.111Z,7.70
2023-02-04T01:55:38.726Z,8.20
2023-02-04T01:58:11.342Z,7.00
2023-02-04T02:00:40.581Z,6.50
2023-02-04T02:03:11.500Z,6.80
2023-02-04T02:05:49.891Z,7.40
2023-02-04T02:08:19.388Z,6.60
2023-02-04T02:10:49.830Z,6.10
2023-02-04T02:13:19.992Z,5.80
2023-02-04T02:15:48.919Z,6.40
2023-02-04T02:18:17.457Z,6.10
2023-02-04T02:20:46.427Z,5.90
2023-02-04T02:23:48.327Z,5.40
2023-02-04T02:26:18.396Z,5.20
2023-02-04T02:28:48.092Z,5.70
2023-02-04T02:31:19.223Z,6.00
2023-02-04T02:33:51.104Z,5.20
2023-02-04T02:36:24.101Z,4.50
2023-02-04T02:38:52.495Z,4.30
2023-02-04T02:41:21.020Z,4.20
2023-02-04T02:43:49.336Z,4.60
2023-02-04T02:46:17.793Z,4.10
2023-02-04T02:48:46.368Z,4.10
2023-02-04T02:51:14.861Z,3.40
2023-02-04T02:53:43.219Z,3.30
2023-02-04T02:56:11.697Z,3.00
2023-02-04T02:58:39.922Z,3.20
2023-02-04T03:01:10.189Z,3.10
2023-02-04T03:03:43.818Z,3.40
2023-02-04T03:06:23.716Z,3.00
2023-02-04T03:08:55.507Z,3.50
2023-02-04T03:11:26.518Z,3.80
2023-02-04T03:13:57.547Z,3.70
2023-02-04T03:16:26.184Z,3.60
2023-02-04T03:18:54.582Z,3.40
2023-02-04T03:21:23.212Z,3.90
2023-02-04T03:23:51.771Z,3.40
2023-02-04T03:26:20.160Z,3.00
2023-02-04T03:28:48.972Z,3.60
2023-02-04T03:31:17.595Z,4.00
2023-02-04T03:33:46.194Z,3.80
2023-02-04T03:36:14.641Z,3.80
2023-02-04T03:38:43.241Z,4.30
2023-02-04T03:41:14.035Z,4.10
2023-02-04T03:43:42.236Z,4.20
2023-02-04T03:46:10.700Z,4.70
2023-02-04T03:48:38.892Z,5.20
2023-02-04T03:51:07.248Z,4.00
2023-02-04T03:53:35.832Z,3.90
2023-02-04T03:56:04.526Z,6.60
2023-02-04T03:58:32.911Z,7.30
2023-02-04T04:01:01.474Z,6.50
2023-02-04T04:03:30.365Z,7.30
2023-02-04T04:05:58.565Z,5.30
2023-02-04T04:08:27.425Z,5.80
2023-02-04T04:10:55.507Z,5.70
2023-02-04T04:13:23.934Z,5.50
2023-02-04T04:15:52.346Z,5.20
2023-02-04T04:18:20.953Z,4.20
2023-02-04T04:20:49.311Z,5.50
2023-02-04T04:23:17.892Z,6.30
2023-02-04T04:25:46.122Z,5.30
2023-02-04T04:28:15.523Z,6.00
2023-02-04T04:30:44.156Z,5.90
2023-02-04T04:33:12.571Z,5.70
2023-02-04T04:35:40.858Z,5.20
2023-02-04T04:38:09.270Z,5.50
2023-02-04T04:40:37.434Z,6.80
2023-02-04T04:43:07.852Z,4.90
2023-02-04T04:45:36.402Z,5.80
2023-02-04T04:48:05.001Z,5.00
2023-02-04T04:50:33.675Z,5.30
2023-02-04T04:53:02.546Z,4.80
2023-02-04T04:55:31.102Z,5.00
2023-02-04T04:57:59.328Z,4.80
2023-02-04T05:00:27.696Z,5.80
2023-02-04T05:02:56.026Z,5.70
2023-02-04T05:05:24.692Z,5.70
2023-02-04T05:07:53.922Z,5.60
2023-02-04T05:10:22.331Z,5.40
2023-02-04T05:12:50.604Z,4.40
2023-02-04T05:15:18.893Z,4.30
2023-02-04T05:17:46.970Z,3.90
2023-02-04T05:20:15.397Z,5.00
2023-02-04T05:22:44.186Z,3.50
2023-02-04T05:25:12.849Z,3.80
2023-02-04T05:27:41.346Z,4.10
2023-02-04T05:30:11.830Z,4.00
2023-02-04T05:32:41.050Z,4.60
2023-02-04T05:35:09.601Z,4.60
2023-02-04T05:37:37.906Z,4.50
2023-02-04T05:40:06.654Z,4.80
2023-02-04T05:42:35.366Z,4.70
2023-02-04T05:45:03.698Z,4.00
2023-02-04T05:47:31.921Z,4.50
2023-02-04T05:50:00.587Z,5.00
2023-02-04T05:52:29.171Z,4.50
2023-02-04T05:54:58.642Z,4.30
2023-02-04T05:57:26.968Z,4.50
2023-02-04T05:59:55.448Z,3.80
2023-02-04T06:02:23.709Z,4.80
2023-02-04T06:04:52.309Z,4.80
2023-02-04T06:07:20.505Z,4.80
2023-02-04T06:09:48.793Z,4.70
2023-02-04T06:12:17.218Z,5.00
2023-02-04T06:14:45.628Z,4.50
2023-02-04T06:17:17.044Z,5.30
2023-02-04T06:19:45.503Z,4.70
2023-02-04T06:22:13.910Z,5.90
2023-02-04T06:24:42.327Z,5.60
2023-02-04T06:27:10.841Z,5.90
2023-02-04T06:29:39.280Z,6.20
2023-02-04T06:32:07.716Z,6.10
2023-02-04T06:34:36.023Z,4.90
2023-02-04T06:37:04.351Z,5.40
2023-02-04T06:39:33.025Z,6.10
2023-02-04T06:42:01.249Z,6.70
2023-02-04T06:44:32.105Z,5.60
2023-02-04T06:47:00.688Z,6.00
2023-02-04T06:49:29.120Z,6.50
2023-02-04T06:51:57.487Z,6.00
2023-02-04T06:54:27.318Z,6.20
2023-02-04T06:56:56.164Z,5.10
2023-02-04T06:59:26.469Z,5.60
2023-02-04T07:01:54.659Z,5.40
2023-02-04T07:04:24.125Z,4.80
2023-02-04T07:06:52.595Z,8.70
2023-02-04T07:09:21.374Z,5.60
2023-02-04T07:11:49.767Z,6.10
2023-02-04T07:14:19.326Z,5.10
2023-02-04T07:16:47.892Z,5.50
2023-02-04T07:19:17.776Z,5.50
2023-02-04T07:21:46.863Z,7.60
2023-02-04T07:24:15.390Z,6.90
2023-02-04T07:26:44.320Z,7.00
2023-02-04T07:29:17.605Z,6.50
2023-02-04T07:31:53.199Z,5.80
2023-02-04T07:34:21.886Z,6.30
2023-02-04T07:36:50.240Z,6.20
2023-02-04T07:39:18.604Z,5.60
2023-02-04T07:41:47.013Z,7.10
2023-02-04T07:44:15.552Z,9.60
2023-02-04T07:46:44.114Z,11.10
2023-02-04T07:49:12.586Z,9.70
2023-02-04T07:51:46.302Z,7.50
2023-02-04T07:54:14.697Z,6.00
2023-02-04T07:56:42.910Z,5.90
2023-02-04T07:59:11.439Z,4.70
2023-02-04T08:01:39.831Z,4.00
2023-02-04T08:04:08.891Z,4.50
2023-02-04T08:06:37.258Z,5.00
2023-02-04T08:09:06.030Z,4.80
2023-02-04T08:11:34.618Z,4.50
2023-02-04T08:14:03.056Z,3.40
2023-02-04T08:16:31.584Z,4.00
2023-02-04T08:19:00.144Z,4.50
2023-02-04T08:21:28.800Z,3.60
2023-02-04T08:23:57.351Z,2.90
2023-02-04T08:26:25.666Z,4.30
2023-02-04T08:28:53.741Z,4.20
2023-02-04T08:31:22.054Z,5.20
2023-02-04T08:33:50.552Z,3.90
2023-02-04T08:36:20.917Z,3.20
2023-02-04T08:38:49.322Z,3.60
2023-02-04T08:41:18.157Z,4.00
2023-02-04T08:43:46.488Z,4.40
2023-02-04T08:46:14.886Z,5.40
2023-02-04T08:48:43.791Z,3.90
2023-02-04T08:51:12.971Z,3.40
2023-02-04T08:53:41.286Z,3.90
2023-02-04T08:56:10.750Z,4.40
2023-02-04T08:58:40.069Z,4.10
2023-02-04T09:01:08.600Z,5.60
2023-02-04T09:03:38.016Z,3.40
2023-02-04T09:06:07.767Z,4.20
2023-02-04T09:08:36.281Z,3.80
2023-02-04T09:11:05.437Z,4.50
2023-02-04T09:13:34.104Z,3.50
2023-02-04T09:16:02.571Z,3.50
2023-02-04T09:18:32.910Z,5.30
2023-02-04T09:21:01.692Z,4.50
2023-02-04T09:23:30.749Z,3.80
2023-02-04T09:25:59.636Z,4.00
2023-02-04T09:28:28.162Z,4.70
2023-02-04T09:30:57.949Z,4.90
2023-02-04T09:33:26.463Z,3.90
2023-02-04T09:35:55.680Z,4.40
2023-02-04T09:38:24.567Z,5.00
2023-02-04T09:41:00.394Z,4.20
2023-02-04T09:43:34.009Z,5.30
2023-02-04T09:46:04.605Z,4.80
2023-02-04T09:48:33.345Z,5.70
2023-02-04T09:51:07.918Z,5.10
2023-02-04T09:53:37.099Z,5.10
2023-02-04T09:56:05.930Z,3.90
2023-02-04T09:58:35.723Z,6.10
2023-02-04T10:01:11.882Z,9.20
2023-02-04T10:03:46.877Z,6.00
2023-02-04T10:06:21.434Z,6.30
2023-02-04T10:08:51.457Z,3.80
2023-02-04T10:11:22.475Z,4.20
2023-02-04T10:13:54.371Z,5.20
2023-02-04T10:16:35.890Z,4.50
2023-02-04T10:19:08.338Z,3.90
2023-02-04T10:21:37.396Z,3.60
2023-02-04T10:24:11.942Z,5.10
2023-02-04T10:26:40.558Z,3.90
2023-02-04T10:29:18.410Z,3.60
2023-02-04T10:31:49.291Z,4.60
2023-02-04T10:34:35.045Z,4.20
2023-02-04T10:37:13.148Z,4.00
2023-02-04T10:39:44.707Z,5.60
2023-02-04T10:42:25.079Z,4.80
2023-02-04T10:44:54.348Z,5.60
2023-02-04T10:47:25.216Z,4.70
2023-02-04T10:50:00.754Z,4.30
2023-02-04T10:52:38.484Z,5.00
2023-02-04T10:55:12.520Z,5.00
2023-02-04T10:57:42.880Z,6.50
2023-02-04T11:00:23.852Z,8.10
2023-02-04T11:03:23.059Z,5.50
2023-02-04T11:05:52.046Z,3.80
2023-02-04T11:08:37.854Z,6.00
2023-02-04T11:11:11.517Z,8.00
2023-02-04T11:14:02.541Z,7.60
2023-02-04T11:16:35.811Z,8.30
2023-02-04T11:19:12.855Z,8.70
2023-02-04T11:21:42.967Z,8.30
2023-02-04T11:24:14.553Z,6.30
2023-02-04T11:26:46.774Z,8.10
2023-02-04T11:29:31.711Z,5.70
2023-02-04T11:32:09.251Z,5.10
2023-02-04T11:34:53.056Z,7.90
2023-02-04T11:37:28.692Z,7.50
2023-02-04T11:40:02.110Z,7.40
2023-02-04T11:42:42.290Z,4.70
2023-02-04T11:45:15.530Z,5.90
2023-02-04T11:47:45.653Z,9.60
2023-02-04T11:50:22.852Z,8.50
2023-02-04T11:52:52.165Z,4.60
2023-02-04T11:55:21.158Z,4.40
2023-02-04T11:57:53.858Z,3.70
2023-02-04T12:00:31.336Z,3.80
2023-02-04T12:03:04.796Z,3.70
2023-02-04T12:05:43.144Z,2.90
2023-02-04T12:08:25.244Z,2.90
2023-02-04T12:11:13.765Z,3.40
2023-02-04T12:13:51.223Z,3.70
2023-02-04T12:16:23.599Z,2.70
2023-02-04T12:18:52.135Z,3.20
2023-02-04T12:21:21.421Z,2.60
2023-02-04T12:23:49.756Z,6.00
2023-02-04T12:26:18.256Z,4.10
2023-02-04T12:28:46.460Z,3.00
2023-02-04T12:31:15.790Z,5.20
2023-02-04T12:33:44.437Z,3.40
2023-02-04T12:36:13.058Z,2.70
2023-02-04T12:38:41.652Z,2.90
2023-02-04T12:41:10.538Z,2.70
2023-02-04T12:43:39.663Z,3.30
2023-02-04T12:46:08.266Z,3.10
2023-02-04T12:48:41.151Z,2.90
2023-02-04T12:51:10.125Z,3.00
2023-02-04T12:53:38.789Z,2.90
2023-02-04T12:56:07.201Z,4.90
2023-02-04T12:58:40.661Z,5.70
2023-02-04T13:01:09.033Z,3.90
2023-02-04T13:03:37.189Z,3.70
2023-02-04T13:06:05.916Z,2.90
2023-02-04T13:08:35.456Z,2.50
2023-02-04T13:11:04.012Z,3.30
2023-02-04T13:13:32.376Z,3.40
2023-02-04T13:16:00.595Z,4.10
2023-02-04T13:18:29.106Z,2.80
2023-02-04T13:20:57.502Z,3.50
2023-02-04T13:23:25.838Z,2.60
2023-02-04T13:25:54.393Z,3.80
2023-02-04T13:28:23.042Z,4.00
2023-02-04T13:30:51.914Z,5.60
2023-02-04T13:33:20.453Z,10.70
2023-02-04T13:35:49.008Z,3.50
2023-02-04T13:38:17.574Z,2.70
2023-02-04T13:40:46.057Z,3.00
2023-02-04T13:43:16.090Z,2.80
2023-02-04T13:45:49.305Z,3.10
2023-02-04T13:48:17.654Z,3.10
2023-02-04T13:50:46.302Z,3.30
2023-02-04T13:53:14.411Z,3.80
2023-02-04T13:55:42.870Z,3.40
2023-02-04T13:58:11.636Z,3.30
2023-02-04T14:00:40.052Z,4.70
2023-02-04T14:03:08.267Z,4.00
2023-02-04T14:05:37.009Z,4.60
2023-02-04T14:08:05.470Z,5.30
2023-02-04T14:10:35.186Z,4.80
2023-02-04T14:13:05.122Z,6.00
2023-02-04T14:15:35.746Z,5.50
2023-02-04T14:18:05.347Z,5.00
2023-02-04T14:20:34.372Z,5.30
2023-02-04T14:23:04.444Z,6.90
2023-02-04T14:25:32.680Z,5.20
2023-02-04T14:28:01.860Z,7.20
2023-02-04T14:30:31.995Z,8.10
2023-02-04T14:33:01.737Z,5.70
2023-02-04T14:35:30.586Z,6.10
2023-02-04T14:37:59.152Z,6.00
2023-02-04T14:40:28.120Z,7.50
2023-02-04T14:42:56.694Z,7.70
2023-02-04T14:45:25.026Z,9.80
2023-02-04T14:47:57.422Z,11.30
2023-02-04T14:50:27.598Z,9.20
2023-02-04T14:52:57.255Z,15.40
2023-02-04T14:55:26.857Z,9.20
2023-02-04T14:57:56.050Z,7.30
2023-02-04T15:00:24.646Z,6.80
2023-02-04T15:02:54.261Z,6.70
2023-02-04T15:05:22.757Z,6.00
2023-02-04T15:07:51.143Z,5.10
2023-02-04T15:10:19.585Z,4.90
2023-02-04T15:12:48.117Z,5.00
2023-02-04T15:15:16.268Z,5.30
2023-02-04T15:17:45.155Z,5.80
2023-02-04T15:20:13.695Z,6.20
2023-02-04T15:22:42.239Z,5.60
2023-02-04T15:25:15.275Z,5.40
2023-02-04T15:27:43.646Z,6.80
2023-02-04T15:30:13.583Z,7.60
2023-02-04T15:32:43.732Z,7.90
2023-02-04T15:35:13.782Z,8.90
2023-02-04T15:37:42.075Z,8.60
2023-02-04T15:40:11.998Z,9.60
2023-02-04T15:42:40.313Z,8.10
2023-02-04T15:45:09.046Z,7.60
2023-02-04T15:47:37.588Z,7.30
2023-02-04T15:50:11.049Z,12.40
2023-02-04T15:52:39.233Z,17.10
2023-02-04T15:55:08.046Z,8.90
2023-02-04T15:57:37.119Z,8.90
2023-02-04T16:00:07.029Z,8.00
2023-02-04T16:02:35.778Z,6.90
2023-02-04T16:05:05.001Z,8.70
2023-02-04T16:07:33.937Z,15.90
2023-02-04T16:10:02.509Z,8.80
2023-02-04T16:12:31.131Z,9.30
2023-02-04T16:15:02.487Z,7.10
2023-02-04T16:17:33.548Z,7.80
2023-02-04T16:20:04.012Z,8.60
2023-02-04T16:22:32.467Z,8.30
2023-02-04T16:25:00.825Z,8.70
2023-02-04T16:27:33.951Z,8.00
2023-02-04T16:30:02.934Z,8.80
2023-02-04T16:32:34.140Z,19.50
2023-02-04T16:35:04.623Z,8.40
2023-02-04T16:37:34.423Z,7.40
2023-02-04T16:40:02.847Z,7.50
2023-02-04T16:42:31.711Z,7.90
2023-02-04T16:45:00.401Z,10.40
2023-02-04T16:47:28.961Z,11.90
2023-02-04T16:50:01.190Z,7.40
2023-02-04T16:52:29.998Z,6.60
2023-02-04T16:54:59.614Z,7.10
2023-02-04T16:57:28.028Z,7.80
2023-02-04T16:59:57.081Z,7.30
2023-02-04T17:02:25.761Z,9.60
2023-02-04T17:04:54.002Z,9.60
2023-02-04T17:07:22.286Z,10.20
2023-02-04T17:09:51.933Z,10.60
2023-02-04T17:12:23.323Z,27.90
2023-02-04T17:14:51.667Z,9.50
2023-02-04T17:17:20.108Z,6.50
2023-02-04T17:19:48.616Z,7.10
2023-02-04T17:22:16.938Z,13.20
2023-02-04T17:24:45.389Z,11.00
2023-02-04T17:27:13.683Z,11.50
2023-02-04T17:29:42.198Z,8.30
2023-02-04T17:32:12.721Z,9.30
2023-02-04T17:34:41.086Z,12.70
2023-02-04T17:37:12.369Z,17.30
2023-02-04T17:39:40.658Z,8.90
2023-02-04T17:42:09.058Z,12.10
2023-02-04T17:44:38.658Z,12.20
2023-02-04T17:47:07.082Z,18.40
2023-02-04T17:49:35.481Z,19.20
2023-02-04T17:52:05.890Z,16.90
2023-02-04T17:54:34.459Z,13.70
2023-02-04T17:57:19.191Z,13.50
2023-02-04T17:59:49.908Z,14.30
2023-02-04T18:02:30.756Z,13.10
2023-02-04T18:05:01.410Z,13.40
2023-02-04T18:07:30.402Z,16.90
2023-02-04T18:10:18.351Z,16.50
2023-02-04T18:12:46.627Z,19.10
2023-02-04T18:15:32.393Z,16.00
2023-02-04T18:18:13.559Z,14.00
2023-02-04T18:20:41.823Z,26.50
2023-02-04T18:23:19.183Z,36.50
2023-02-04T18:25:49.180Z,12.80
2023-02-04T18:28:20.515Z,11.60
2023-02-04T18:30:53.504Z,11.60
2023-02-04T18:33:27.370Z,14.10
2023-02-04T18:36:02.867Z,12.50
2023-02-04T18:38:39.479Z,22.10
2023-02-04T18:41:27.942Z,21.50
2023-02-04T18:44:02.807Z,20.30
2023-02-04T18:46:37.562Z,13.90
2023-02-04T18:49:33.005Z,37.50
2023-02-04T18:52:15.469Z,21.10
2023-02-04T18:54:53.240Z,21.00
2023-02-04T18:57:39.932Z,24.60
2023-02-04T19:00:12.145Z,13.70
2023-02-04T19:03:00.799Z,17.90
2023-02-04T19:05:37.815Z,21.00
2023-02-04T19:08:06.377Z,19.60
2023-02-04T19:10:40.225Z,13.60
2023-02-04T19:13:26.269Z,18.00
2023-02-04T19:16:16.994Z,18.10
2023-02-04T19:18:47.438Z,16.00
2023-02-04T19:21:22.754Z,18.40
2023-02-04T19:24:13.156Z,17.40
2023-02-04T19:26:53.780Z,20.50
2023-02-04T19:29:31.111Z,20.00
2023-02-04T19:32:09.672Z,14.70
2023-02-04T19:34:40.404Z,13.60
2023-02-04T19:37:39.164Z,14.60
2023-02-04T19:40:38.139Z,10.10
2023-02-04T19:43:21.552Z,12.20
2023-02-04T19:45:51.409Z,7.10
2023-02-04T19:48:38.614Z,14.20
2023-02-04T19:51:28.069Z,9.50
2023-02-04T19:54:02.958Z,10.90
2023-02-04T19:56:36.179Z,13.40
2023-02-04T19:59:30.747Z,16.60
2023-02-04T20:02:08.499Z,8.90
2023-02-04T20:04:42.270Z,16.90
2023-02-04T20:07:23.501Z,14.70
2023-02-04T20:10:24.597Z,12.00
2023-02-04T20:12:59.301Z,13.80
2023-02-04T20:15:27.572Z,13.10
2023-02-04T20:18:07.186Z,8.20
2023-02-04T20:20:39.235Z,9.60
2023-02-04T20:23:22.862Z,12.40
2023-02-04T20:25:51.211Z,7.50
2023-02-04T20:28:23.325Z,16.10
2023-02-04T20:30:53.330Z,13.90
2023-02-04T20:33:30.589Z,15.50
2023-02-04T20:36:26.781Z,13.50
2023-02-04T20:39:24.416Z,9.10
2023-02-04T20:41:53.055Z,8.60
2023-02-04T20:44:40.574Z,14.60
2023-02-04T20:47:18.486Z,11.30
2023-02-04T20:49:57.198Z,10.10
2023-02-04T20:52:40.788Z,9.30
2023-02-04T20:55:34.352Z,7.10
2023-02-04T20:58:14.902Z,10.20
2023-02-04T21:00:45.287Z,10.50
2023-02-04T21:03:21.873Z,10.20
2023-02-04T21:05:52.834Z,12.10
2023-02-04T21:08:33.524Z,9.50
2023-02-04T21:11:05.931Z,9.60
2023-02-04T21:13:34.958Z,12.00
2023-02-04T21:16:04.611Z,12.00
2023-02-04T21:18:34.920Z,20.60
2023-02-04T21:21:07.573Z,13.30
2023-02-04T21:23:44.245Z,18.50
2023-02-04T21:26:12.883Z,15.70
2023-02-04T21:28:41.633Z,13.10
2023-02-04T21:31:11.774Z,13.40
2023-02-04T21:33:42.198Z,14.30
2023-02-04T21:36:10.669Z,20.50
2023-02-04T21:38:39.221Z,14.40
2023-02-04T21:41:07.309Z,15.60
2023-02-04T21:43:35.626Z,10.90
2023-02-04T21:46:05.113Z,11.30
2023-02-04T21:48:34.543Z,13.90
2023-02-04T21:51:03.179Z,11.60
2023-02-04T21:53:32.042Z,12.00
2023-02-04T21:56:00.336Z,12.40
2023-02-04T21:58:29.333Z,12.20
2023-02-04T22:00:57.785Z,11.10
2023-02-04T22:03:27.343Z,11.10
2023-02-04T22:05:55.925Z,16.00
2023-02-04T22:08:24.924Z,18.40
2023-02-04T22:10:53.162Z,19.10
2023-02-04T22:13:21.915Z,15.60
2023-02-04T22:15:50.723Z,14.30
2023-02-04T22:18:20.645Z,12.10
2023-02-04T22:20:49.517Z,7.80
2023-02-04T22:23:20.824Z,8.40
2023-02-04T22:25:49.189Z,9.80
2023-02-04T22:28:17.937Z,11.60
2023-02-04T22:30:50.045Z,10.60
2023-02-04T22:33:18.759Z,14.10
2023-02-04T22:35:49.033Z,17.40
2023-02-04T22:38:21.259Z,14.00
2023-02-04T22:40:50.394Z,24.40
2023-02-04T22:43:18.703Z,21.40
2023-02-04T22:45:48.095Z,24.10
2023-02-04T22:48:19.501Z,20.00
2023-02-04T22:50:48.276Z,15.70
2023-02-04T22:53:16.782Z,22.80
2023-02-04T22:55:45.255Z,14.80
2023-02-04T22:58:14.124Z,14.60
2023-02-04T23:00:42.503Z,14.50
2023-02-04T23:03:10.895Z,19.60
2023-02-04T23:05:39.697Z,22.60
2023-02-04T23:08:08.155Z,26.90
2023-02-04T23:10:38.812Z,27.00
2023-02-04T23:13:07.544Z,32.90
2023-02-04T23:15:39.394Z,32.40
2023-02-04T23:18:07.905Z,36.30
2023-02-04T23:20:38.258Z,39.30
2023-02-04T23:23:07.661Z,39.70
2023-02-04T23:25:36.697Z,41.60
2023-02-04T23:28:05.273Z,39.90
2023-02-04T23:30:36.727Z,38.90
2023-02-04T23:33:05.310Z,35.80
2023-02-04T23:35:34.445Z,33.70
2023-02-04T23:38:03.530Z,22.70
2023-02-04T23:40:32.840Z,21.20
2023-02-04T23:43:01.157Z,18.60
2023-02-04T23:45:29.977Z,16.10
2023-02-04T23:47:58.927Z,16.00
2023-02-04T23:50:27.270Z,16.00
2023-02-04T23:52:56.691Z,14.50
2023-02-04T23:55:28.722Z,12.90
2023-02-04T23:57:57.226Z,12.70
